Airfield :







YOU CAN JOIN US ON...

 
LOGIN :

Register | Disclaimer

   EN    FR    IT 

 









Legend :    VFR   Marginal VFR   IFR   Intensive IFR   Very Intensive IFR
Visi :
Ceiling :
>= 8 km
>= 3000ft
5 to 8 km
1000 to 3000 ft
1500m to 5 km
500 to 1000 ft
800 to 1500m
200 to 500 ft
< 800m
< 200 ft
Symbols :   Thunderstorms  Fog  Heavy snow  Heavy precipitations  Wind > 20 kt







- Airport Elevation : 1270 ft
- IATA code : YMT


CYMT - Chapais

CURRENT METAR :
  • 181603Z AUTO 10011G17KT 1SM -SN BKN005 OVC011 01/M00 A2981 RMK PRESFR SLP113

EXPIRED METARs :
  • 181529Z AUTO 11010KT 3/4SM -SN BKN005 OVC011 00/M00 A2984 RMK PRESFR SLP124
  • 181512Z AUTO 12010KT 1 1/4SM -SN BKN005 OVC011 00/M00 A2986 RMK SLP132
  • 181507Z AUTO 12009KT 1 3/4SM -SN BKN005 OVC011 01/M00 A2986 RMK VIS VRB 5/8-3 SLP133
  • 181454Z AUTO 13009KT 1 1/4SM -SN BKN005 OVC011 00/M00 A2987 RMK SLP134
  • 181443Z AUTO 13009KT 1 1/2SM -SN SCT007 OVC011 01/M00 A2988 RMK VIS VRB 3/4-3 SLP137
  • 181423Z AUTO 16009G16KT 2SM -SN FEW007 OVC015 01/M00 A2989 RMK VIS VRB 1-3 SLP141
  • 181414Z AUTO 16010G16KT 5SM -SN -UP FEW011 SCT016 BKN022 OVC027 01/M01 A2989 RMK SLP141
  • 181405Z AUTO 17012G22KT 3SM -UP FEW018 SCT024 BKN036 OVC060 02/M01 A2989 RMK SLP142

TAF AMD TAF CYMT
Valid from the 18 at 15:00 until the 19 at 00:00 UTC


181531Z 1815/1824 12015G25KT 3/4SM -SN OVC005
TEMPO 1815/1820 3SM -SNRA BR OVC010
FM182000 14012G22KT 3/4SM -RA -DZ BR OVC003 RMK FCST BASED ON AUTO OBS. NXT FCST BY 181800Z
CZUL FIR / North America



MET'MAP, your aeronautical weather chart ! - Copyright ORBIFLY December 2007 - Disclaimer

ORBIFLY MET'MAP TEAM :

Programming & Development : Alexandra Zaïnal
Concept & Development : Baudouin d'Aumeries
Co-Development & Prog : Marc-Olivier Méhu
Technical & hardware support : Manuel Goepfert

Contact : metmap@orbifly.com




SOURCES & CREDITS :

   NOAA